North Scituate, Massachusetts
Current Conditions -  °F | °C
As of 7:55 PM on Monday 26 Jan 2015 (Local Time) from KGHG Reporting Station
Moderate Rain Moderate Rain  
Wind Chill: 19°   Ceiling: 100
Heat Index: 32°   Visibility: 0.5mi
Dew Point: 30°   Wind: 23mph
Humidity: 93%   Direction: 50°NE
Pressure: 29.98"   Gusts: 41mph
Location:  42.22°N, 70.78°W
Report Text: KGHG 270055Z AUTO 05020G36KT 1/2SM RA OVC001 00/M01 A2998 RMK AO2
Loading
Personal Weather Stations






























Interactive Weather Map New forecast layout! Learn more

10-Day Weather Forecast

Advertisements
Track Severe Weather on mobile